Francisco Sarabia International Airport


Codes: MMTC/TRC
Name: Francisco Sarabia International Airport
City: Torreon
Country: Mexico
Elevation: 3688 ft.
Wikipedia:

Photos at Francisco Sarabia International Airport


   Photos courtesy of SpottingLog. You can add your own sightings and photos by signing up for a free trial today.



No photos found.

Weather at Francisco Sarabia International Airport


Time (UTC)DescriptionTempratureWindCloud coverageVisibilityPressureHumidity
23-May-2024 21:00Clear Sky36°C9 mph, NE0%10000m1012hPa6%
24-May-2024 00:00Clear Sky37°C16 mph, NE0%10000m1007hPa5%
24-May-2024 03:00Clear Sky28°C2 mph, N4%10000m1005hPa9%
24-May-2024 06:00Clear Sky27°C4 mph, W4%10000m1007hPa9%
24-May-2024 09:00Clear Sky24°C4 mph, W0%10000m1008hPa14%
24-May-2024 12:00Clear Sky22°C0 mph, E0%10000m1010hPa18%
24-May-2024 15:00Clear Sky30°C2 mph, E0%10000m1011hPa11%
24-May-2024 18:00Clear Sky35°C4 mph, N0%10000m1009hPa11%
24-May-2024 21:00Clear Sky38°C9 mph, E2%10000m1005hPa9%
25-May-2024 00:00Few Clouds39°C0 mph, NE13%10000m1002hPa8%
25-May-2024 03:00Scattered Clouds30°C9 mph, SE38%10000m1004hPa14%
25-May-2024 06:00Scattered Clouds27°C4 mph, NW30%10000m1007hPa16%
25-May-2024 09:00Few Clouds24°C2 mph, W16%10000m1007hPa20%
25-May-2024 12:00Clear Sky22°C0 mph, W8%10000m1009hPa23%
25-May-2024 15:00Clear Sky31°C4 mph, NW2%10000m1010hPa14%
25-May-2024 18:00Clear Sky36°C4 mph, NW2%10000m1008hPa10%
25-May-2024 21:00Clear Sky39°C7 mph, SE0%10000m1004hPa8%
26-May-2024 00:00Clear Sky40°C0 mph, NE0%10000m1001hPa7%
26-May-2024 03:00Few Clouds30°C2 mph, NE12%10000m1005hPa14%
26-May-2024 06:00Scattered Clouds29°C9 mph, NE34%10000m1009hPa14%
26-May-2024 09:00Clear Sky26°C2 mph, SW9%10000m1009hPa17%
26-May-2024 12:00Clear Sky23°C2 mph, NW7%10000m1010hPa21%
26-May-2024 15:00Clear Sky32°C4 mph, W0%10000m1011hPa12%
26-May-2024 18:00Clear Sky37°C9 mph, N0%10000m1008hPa10%
26-May-2024 21:00Scattered Clouds39°C7 mph, N30%10000m1005hPa9%
27-May-2024 00:00Few Clouds39°C13 mph, NE20%10000m1003hPa9%
27-May-2024 03:00Clear Sky31°C7 mph, N9%10000m1006hPa14%
27-May-2024 06:00Few Clouds27°C0 mph, SW19%10000m1008hPa18%
27-May-2024 09:00Scattered Clouds26°C2 mph, NW30%10000m1010hPa27%
27-May-2024 12:00Few Clouds24°C4 mph, SW23%10000m1010hPa31%
27-May-2024 15:00Scattered Clouds32°C2 mph, N43%10000m1012hPa18%
27-May-2024 18:00Broken Clouds37°C7 mph, N59%10000m1010hPa7%
27-May-2024 21:00Overcast Clouds39°C4 mph, N100%10000m1006hPa7%
28-May-2024 00:00Overcast Clouds39°C11 mph, N100%10000m1004hPa7%
28-May-2024 03:00Broken Clouds32°C9 mph, N81%10000m1007hPa11%
28-May-2024 06:00Overcast Clouds30°C4 mph, N90%10000m1010hPa16%
28-May-2024 09:00Overcast Clouds25°C2 mph, N100%10000m1009hPa26%
28-May-2024 12:00Overcast Clouds25°C4 mph, W100%10000m1011hPa27%
28-May-2024 15:00Overcast Clouds31°C2 mph, E98%10000m1013hPa22%
28-May-2024 18:00Overcast Clouds36°C4 mph, N99%10000m1011hPa12%